Time;durP1;ratioP1;P1;durP2;ratioP2;P2;SDS_P1;SDS_P2;PMS_P1;PMS_P2;Temp;Humidity;BMP_temperature;BMP_pressure;BME280_temperature;BME280_humidity;BME280_pressure;Samples;Min_cycle;Max_cycle;Signal;HPM_P1;HPM_P2
2023/08/03 00:03:27;;;;;;;1.80;1.40;;;;;;;19.85;70.25;97406.69;226131;1279;22553;-74
2023/08/03 00:08:34;;;;;;;3.10;1.50;;;;;;;19.89;70.35;97405.25;226129;1279;22593;-74
2023/08/03 00:13:57;;;;;;;4.10;1.60;;;;;;;19.90;70.25;97411.08;226126;1279;22548;-73
2023/08/03 00:19:00;;;;;;;2.60;1.50;;;;;;;19.89;70.51;97419.55;226177;1280;22520;-74
2023/08/03 00:24:35;;;;;;;2.30;1.70;;;;;;;19.88;70.64;97413.95;225967;1279;22552;-74
2023/08/03 00:29:38;;;;;;;1.40;1.30;;;;;;;19.87;70.72;97398.79;226089;1276;22552;-73
2023/08/03 00:35:12;;;;;;;2.70;1.40;;;;;;;19.86;71.00;97410.05;226090;1280;22669;-73
2023/08/03 00:40:34;;;;;;;1.90;1.50;;;;;;;19.86;71.18;97428.77;226037;1280;22638;-73
2023/08/03 00:45:37;;;;;;;2.00;1.60;;;;;;;19.87;71.21;97431.87;226032;1280;24272;-73
2023/08/03 00:50:39;;;;;;;3.60;1.60;;;;;;;19.89;71.13;97424.38;226116;1280;22544;-73
2023/08/03 00:55:42;;;;;;;2.50;1.30;;;;;;;19.92;71.37;97418.40;226169;1278;22552;-73
2023/08/03 01:00:47;;;;;;;2.20;1.40;;;;;;;19.93;71.46;97414.48;226143;1274;22536;-73
2023/08/03 01:06:05;;;;;;;3.30;1.60;;;;;;;19.93;71.48;97411.65;226155;1279;22553;-73
2023/08/03 01:11:10;;;;;;;2.80;1.50;;;;;;;19.92;71.80;97420.92;226132;1276;22558;-73
2023/08/03 01:16:15;;;;;;;1.60;1.40;;;;;;;19.91;71.93;97417.51;226140;1277;22534;-73
2023/08/03 01:21:20;;;;;;;2.40;1.70;;;;;;;19.88;72.10;97423.33;225865;1280;22537;-73
2023/08/03 01:26:44;;;;;;;2.60;1.40;;;;;;;19.85;72.34;97424.80;225917;1280;22537;-73
2023/08/03 01:31:54;;;;;;;2.60;1.60;;;;;;;19.84;72.60;97431.57;226155;1277;22544;-74
2023/08/03 01:36:57;;;;;;;2.70;1.50;;;;;;;19.79;72.78;97425.01;226034;1277;22541;-73
2023/08/03 01:42:13;;;;;;;1.60;1.50;;;;;;;19.77;73.03;97420.84;226155;1279;22544;-73
2023/08/03 01:47:15;;;;;;;1.90;1.40;;;;;;;19.75;73.19;97431.14;226173;1273;22534;-73
2023/08/03 01:52:18;;;;;;;1.10;1.00;;;;;;;19.76;73.32;97449.41;226166;1276;22544;-73
2023/08/03 01:57:20;;;;;;;2.00;1.20;;;;;;;19.80;73.26;97454.42;226000;1277;22523;-74
2023/08/03 02:02:23;;;;;;;2.40;1.20;;;;;;;19.84;73.19;97474.84;225990;1279;24248;-74
2023/08/03 02:07:58;;;;;;;1.60;1.30;;;;;;;19.84;73.24;97491.14;226037;1277;22534;-74
2023/08/03 02:13:00;;;;;;;2.90;1.40;;;;;;;19.83;73.46;97504.76;226148;1276;22540;-73
2023/08/03 02:18:16;;;;;;;4.00;1.40;;;;;;;19.81;73.76;97514.58;226187;1272;22534;-74
2023/08/03 02:23:21;;;;;;;3.00;1.40;;;;;;;19.74;74.39;97546.99;226033;1279;22566;-74
2023/08/03 02:28:24;;;;;;;3.60;1.80;;;;;;;19.60;74.95;97572.52;226071;1279;22889;-74
2023/08/03 02:33:38;;;;;;;5.20;1.80;;;;;;;19.39;75.89;97588.13;225951;1278;22545;-74
2023/08/03 02:38:41;;;;;;;1.80;1.70;;;;;;;19.14;76.72;97576.00;226004;1279;22541;-74
2023/08/03 02:44:13;;;;;;;4.10;1.50;;;;;;;18.86;78.13;97555.09;225949;1280;22485;-74
2023/08/03 02:49:18;;;;;;;2.70;2.10;;;;;;;18.60;79.42;97529.16;226063;1277;22561;-74
2023/08/03 02:54:23;;;;;;;2.50;1.90;;;;;;;18.41;80.38;97516.17;225915;1273;22562;-73
2023/08/03 02:59:27;;;;;;;1.90;1.70;;;;;;;18.27;81.57;97507.67;226084;1276;22551;-74
2023/08/03 03:04:30;;;;;;;3.50;1.90;;;;;;;18.19;82.22;97500.69;225949;1273;22630;-74
2023/08/03 03:09:32;;;;;;;3.60;2.10;;;;;;;18.14;83.43;97500.24;225986;1279;22549;-75
2023/08/03 03:14:36;;;;;;;3.30;2.50;;;;;;;18.11;83.57;97493.63;225987;1276;22534;-74
2023/08/03 03:19:42;;;;;;;3.90;3.20;;;;;;;18.12;83.76;97477.14;225781;1260;22541;-76
2023/08/03 03:24:48;;;;;;;4.30;2.30;;;;;;;18.12;83.82;97482.48;226098;1276;22525;-74
2023/08/03 03:29:51;;;;;;;3.50;3.00;;;;;;;18.12;84.17;97509.34;226071;1279;22542;-74
2023/08/03 03:34:54;;;;;;;3.00;2.70;;;;;;;18.12;84.13;97519.98;226135;1276;24268;-74
2023/08/03 03:40:04;;;;;;;3.20;2.60;;;;;;;18.13;84.22;97530.98;225953;1279;22550;-74
2023/08/03 03:45:12;;;;;;;3.00;2.10;;;;;;;18.16;84.35;97507.89;226092;1276;22542;-74
2023/08/03 03:50:15;;;;;;;2.50;2.00;;;;;;;18.24;84.84;97498.05;226064;1280;22674;-75
2023/08/03 03:55:20;;;;;;;4.80;2.30;;;;;;;18.31;84.73;97521.73;225856;1279;22552;-74
2023/08/03 04:00:26;;;;;;;2.80;2.30;;;;;;;18.34;84.70;97502.76;225887;1280;24301;-74
2023/08/03 04:05:29;;;;;;;3.50;2.40;;;;;;;18.36;84.65;97550.09;225827;1279;25979;-74
2023/08/03 04:10:32;;;;;;;3.40;2.40;;;;;;;18.38;84.66;97548.77;226077;1276;22558;-74
2023/08/03 04:15:35;;;;;;;3.20;2.20;;;;;;;18.38;84.67;97578.29;225967;1279;22683;-74
2023/08/03 04:20:37;;;;;;;2.40;2.20;;;;;;;18.37;84.73;97564.33;226065;1276;22556;-75
2023/08/03 04:25:40;;;;;;;2.50;2.30;;;;;;;18.36;84.82;97580.96;225787;1279;22544;-75
2023/08/03 04:30:50;;;;;;;2.90;2.30;;;;;;;18.35;84.90;97608.55;226112;1272;24234;-75
2023/08/03 04:35:53;;;;;;;3.60;2.80;;;;;;;18.36;85.05;97626.15;225948;1276;22599;-76
2023/08/03 04:41:06;;;;;;;3.00;2.70;;;;;;;18.37;84.96;97629.90;225928;1279;22637;-74
2023/08/03 04:46:13;;;;;;;3.40;2.50;;;;;;;18.38;85.15;97630.81;225951;1276;22544;-74
2023/08/03 04:51:18;;;;;;;2.40;2.10;;;;;;;18.35;85.25;97646.11;226013;1256;22545;-75
2023/08/03 04:56:25;;;;;;;2.80;2.60;;;;;;;18.33;85.35;97638.02;226162;1276;22564;-75
2023/08/03 05:01:27;;;;;;;2.50;2.30;;;;;;;18.37;85.62;97618.89;226020;1279;22604;-75
2023/08/03 05:06:32;;;;;;;4.20;2.60;;;;;;;18.40;85.66;97619.25;225979;1273;22556;-74
2023/08/03 05:11:35;;;;;;;3.20;2.80;;;;;;;18.40;85.94;97626.38;225902;1270;22559;-75
2023/08/03 05:16:38;;;;;;;4.50;3.00;;;;;;;18.42;86.04;97632.61;226054;1276;22565;-75
2023/08/03 05:21:40;;;;;;;4.70;3.70;;;;;;;18.44;86.26;97634.92;226073;1278;23166;-75
2023/08/03 05:26:42;;;;;;;5.90;4.10;;;;;;;18.44;86.35;97636.15;226051;1276;22560;-75
2023/08/03 05:31:49;;;;;;;4.20;2.90;;;;;;;18.42;86.46;97653.53;225975;1276;22576;-76
2023/08/03 05:36:52;;;;;;;3.40;3.10;;;;;;;18.39;86.71;97652.17;225925;1278;23470;-74
2023/08/03 05:41:55;;;;;;;3.50;3.20;;;;;;;18.41;86.82;97638.66;226042;1276;22542;-74
2023/08/03 05:46:57;;;;;;;4.20;3.60;;;;;;;18.47;86.95;97630.02;225733;1276;22545;-74
2023/08/03 05:51:59;;;;;;;4.70;3.60;;;;;;;18.56;87.06;97618.41;225577;1276;25976;-75
2023/08/03 05:57:04;;;;;;;3.40;3.10;;;;;;;18.64;87.22;97606.34;225271;1272;22568;-75
2023/08/03 06:02:24;;;;;;;11.30;10.40;;;;;;;18.76;87.26;97603.16;224951;1256;22588;-76
2023/08/03 06:07:37;;;;;;;5.50;4.40;;;;;;;18.92;87.32;97610.05;225171;1272;22551;-74
2023/08/03 06:12:39;;;;;;;5.20;3.70;;;;;;;19.06;87.19;97614.52;225302;1256;22537;-74
2023/08/03 06:17:42;;;;;;;4.70;3.30;;;;;;;19.17;86.94;97614.77;225370;1272;22567;-74
2023/08/03 06:22:45;;;;;;;6.50;5.60;;;;;;;19.22;86.73;97607.63;225194;1256;22953;-75
2023/08/03 06:27:49;;;;;;;5.00;3.90;;;;;;;19.27;86.57;97595.14;225092;1256;22544;-76
2023/08/03 06:32:52;;;;;;;7.40;6.50;;;;;;;19.31;86.33;97605.34;225385;1260;22544;-77
2023/08/03 06:37:55;;;;;;;3.50;3.20;;;;;;;19.26;86.15;97620.70;225415;1272;22553;-76
2023/08/03 06:43:00;;;;;;;5.10;3.70;;;;;;;19.17;86.25;97638.86;225059;1264;22567;-76
2023/08/03 06:48:04;;;;;;;5.00;3.50;;;;;;;19.08;86.52;97650.94;225228;1259;22934;-76
2023/08/03 06:53:07;;;;;;;4.90;3.70;;;;;;;19.06;86.85;97656.45;225247;1259;22539;-77
2023/08/03 06:58:10;;;;;;;4.00;3.30;;;;;;;19.07;87.00;97667.59;225211;1256;23031;-76
2023/08/03 07:03:13;;;;;;;7.80;4.20;;;;;;;19.07;87.18;97688.73;225582;1274;22556;-76
2023/08/03 07:08:16;;;;;;;3.60;2.90;;;;;;;19.06;87.21;97714.77;225541;1272;23273;-75
2023/08/03 07:13:18;;;;;;;10.30;3.60;;;;;;;19.05;87.27;97723.08;225490;1264;22548;-76
2023/08/03 07:18:23;;;;;;;4.10;2.70;;;;;;;19.05;87.39;97720.88;225460;1272;22541;-77
2023/08/03 07:23:26;;;;;;;3.60;2.50;;;;;;;19.07;86.88;97708.34;225500;1269;24332;-77
2023/08/03 07:28:29;;;;;;;3.70;2.60;;;;;;;19.11;86.77;97690.41;225560;1269;23038;-75
2023/08/03 07:33:32;;;;;;;6.00;2.90;;;;;;;19.13;86.33;97684.80;225580;1278;22552;-77
2023/08/03 07:38:35;;;;;;;4.60;2.50;;;;;;;19.11;86.10;97680.98;225520;1266;22539;-77
2023/08/03 07:43:38;;;;;;;3.10;2.40;;;;;;;19.08;85.99;97682.86;225521;1256;22636;-76
2023/08/03 07:49:12;;;;;;;3.50;2.20;;;;;;;19.09;85.85;97674.29;225614;1268;23200;-75
2023/08/03 07:54:44;;;;;;;;;;;;;;;;;;;;;
2023/08/03 07:59:57;;;;;;;3.90;3.00;;;;;;;19.17;85.86;97691.24;225444;1259;22590;-76
2023/08/03 08:05:16;;;;;;;3.10;2.50;;;;;;;19.21;85.88;97668.00;225388;1276;23714;-76
2023/08/03 08:10:30;;;;;;;3.70;2.70;;;;;;;19.27;85.76;97672.66;225290;1279;22544;-76
2023/08/03 08:15:54;;;;;;;;;;;;;;;;;;;;;
2023/08/03 08:21:11;;;;;;;3.00;2.70;;;;;;;19.23;85.47;97676.52;225370;1257;22536;-76
2023/08/03 08:26:16;;;;;;;3.50;2.90;;;;;;;19.25;85.67;97675.02;225433;1280;22539;-77
2023/08/03 08:31:19;;;;;;;3.30;2.30;;;;;;;19.25;85.49;97705.50;225411;1269;25476;-76
2023/08/03 08:36:24;;;;;;;7.90;3.10;;;;;;;19.21;84.96;97707.86;225560;1268;22654;-76
2023/08/03 08:41:26;;;;;;;6.80;3.00;;;;;;;19.18;85.09;97706.88;225366;1272;22569;-77
2023/08/03 08:46:29;;;;;;;7.20;3.00;;;;;;;19.17;85.11;97716.36;225470;1279;24190;-77
2023/08/03 08:51:33;;;;;;;4.80;2.50;;;;;;;19.15;85.25;97711.23;225308;1270;22640;-77
2023/08/03 08:56:38;;;;;;;5.90;2.50;;;;;;;19.18;85.14;97720.11;225583;1261;22565;-77
2023/08/03 09:01:56;;;;;;;2.70;2.40;;;;;;;19.20;85.10;97692.85;225240;1272;22559;-76
2023/08/03 09:06:59;;;;;;;4.80;3.30;;;;;;;19.24;84.99;97625.36;225616;1268;22542;-76
2023/08/03 09:12:02;;;;;;;3.90;2.90;;;;;;;19.26;84.88;97667.46;225351;1276;22684;-78
2023/08/03 09:17:35;;;;;;;4.40;3.20;;;;;;;19.23;84.77;97676.63;225419;1260;25413;-78
2023/08/03 09:22:45;;;;;;;6.50;3.40;;;;;;;19.22;84.73;97666.39;225612;1272;23084;-76
2023/08/03 09:27:54;;;;;;;4.70;2.80;;;;;;;19.18;84.67;97705.16;225645;1277;22531;-76
2023/08/03 09:32:59;;;;;;;5.10;4.60;;;;;;;19.09;84.45;97660.69;225669;1272;22540;-77
2023/08/03 09:38:25;;;;;;;11.60;3.80;;;;;;;19.05;84.46;97707.64;225742;1272;22519;-77
2023/08/03 09:43:28;;;;;;;10.80;5.70;;;;;;;18.98;84.40;97773.95;225528;1260;25561;-78
2023/08/03 09:48:53;;;;;;;6.50;3.50;;;;;;;18.91;84.60;97779.34;225488;1271;22548;-78
2023/08/03 09:54:05;;;;;;;6.60;3.30;;;;;;;18.92;84.59;97736.14;225524;1256;22590;-76
2023/08/03 09:59:32;;;;;;;7.70;3.10;;;;;;;19.00;84.61;97719.16;224996;1275;22515;-78
2023/08/03 10:04:47;;;;;;;8.00;4.20;;;;;;;19.06;84.43;97733.35;224923;1277;22548;-77
2023/08/03 10:09:56;;;;;;;6.40;3.40;;;;;;;19.08;83.93;97738.23;224904;1282;22561;-78
2023/08/03 10:15:09;;;;;;;7.80;2.70;;;;;;;19.13;83.70;97732.45;225023;1268;25245;-76
2023/08/03 10:20:41;;;;;;;4.80;2.30;;;;;;;19.19;83.31;97759.21;225408;1257;23448;-77
2023/08/03 10:26:03;;;;;;;3.60;2.70;;;;;;;19.29;82.79;97772.50;225391;1272;22552;-77
2023/08/03 10:31:18;;;;;;;3.90;2.80;;;;;;;19.46;82.54;97768.16;225403;1272;22557;-76
2023/08/03 10:36:53;;;;;;;3.60;2.60;;;;;;;19.63;82.40;97788.09;225537;1272;22536;-77
2023/08/03 10:42:21;;;;;;;5.10;2.60;;;;;;;19.76;82.07;97797.61;225574;1262;22626;-77
2023/08/03 10:47:29;;;;;;;5.50;2.90;;;;;;;19.93;81.86;97801.91;225265;1268;496477;-77
2023/08/03 10:52:33;;;;;;;3.10;2.20;;;;;;;20.10;81.41;97801.23;225668;1264;22540;-77
2023/08/03 10:57:43;;;;;;;4.90;2.40;;;;;;;20.36;81.59;97765.45;225618;1264;22549;-76
2023/08/03 11:02:46;;;;;;;3.10;2.10;;;;;;;20.74;81.38;97769.98;225483;1265;23011;-77
2023/08/03 11:07:49;;;;;;;8.10;2.10;;;;;;;20.87;79.38;97801.91;225226;1275;22561;-79
2023/08/03 11:12:55;;;;;;;4.00;2.30;;;;;;;20.81;78.37;97808.54;225000;1272;22543;-77
2023/08/03 11:18:21;;;;;;;8.00;2.50;;;;;;;20.74;77.56;97769.83;224930;1259;22600;-78
2023/08/03 11:23:27;;;;;;;6.20;2.60;;;;;;;20.81;78.73;97719.40;225063;1260;22533;-76
2023/08/03 11:28:29;;;;;;;4.10;1.90;;;;;;;20.90;78.20;97808.08;224895;1272;22948;-78
2023/08/03 11:33:34;;;;;;;5.80;2.50;;;;;;;20.89;77.71;97808.55;224927;1262;23038;-77
2023/08/03 11:38:47;;;;;;;4.70;2.00;;;;;;;20.98;78.03;97809.36;224935;1279;22536;-77
2023/08/03 11:43:51;;;;;;;5.30;2.40;;;;;;;21.17;78.23;97801.48;224801;1272;22551;-77
2023/08/03 11:48:56;;;;;;;5.70;2.50;;;;;;;21.36;77.95;97773.15;224845;1277;22601;-75
2023/08/03 11:54:21;;;;;;;3.60;2.50;;;;;;;21.43;76.77;97824.80;224796;1259;22676;-75
2023/08/03 11:59:24;;;;;;;3.10;2.40;;;;;;;21.30;76.29;97830.60;227593;1272;22159;-76
2023/08/03 12:04:28;;;;;;;4.60;2.30;;;;;;;21.21;76.25;97820.02;227730;1272;22166;-77
2023/08/03 12:09:38;;;;;;;3.60;2.10;;;;;;;21.15;76.34;97817.45;226431;1272;24836;-75
2023/08/03 12:14:41;;;;;;;2.40;1.90;;;;;;;21.10;75.90;97835.85;225441;1272;22562;-76
2023/08/03 12:19:47;;;;;;;3.70;2.20;;;;;;;21.11;76.10;97792.92;225518;1262;22544;-76
2023/08/03 12:24:49;;;;;;;2.50;1.80;;;;;;;21.09;75.86;97785.20;225364;1261;25339;-76
2023/08/03 12:29:52;;;;;;;3.50;1.80;;;;;;;21.10;75.92;97733.08;225388;1270;22553;-76
2023/08/03 12:34:54;;;;;;;6.80;2.40;;;;;;;21.06;75.40;97776.14;225699;1256;22536;-75
2023/08/03 12:39:57;;;;;;;2.10;1.80;;;;;;;21.02;75.05;97774.73;225561;1268;22541;-75
2023/08/03 12:45:00;;;;;;;5.40;3.80;;;;;;;20.85;74.54;97776.79;225652;1256;22687;-74
2023/08/03 12:50:06;;;;;;;2.90;1.90;;;;;;;20.68;74.49;97806.70;225425;1258;23238;-75
2023/08/03 12:55:09;;;;;;;3.00;2.10;;;;;;;20.56;74.42;97798.48;225359;1278;22541;-76
2023/08/03 13:00:11;;;;;;;3.30;1.70;;;;;;;20.55;74.86;97802.03;225425;1279;22476;-75
2023/08/03 13:05:23;;;;;;;5.90;2.00;;;;;;;20.60;74.72;97804.96;225426;1262;22673;-76
2023/08/03 13:10:55;;;;;;;3.20;1.70;;;;;;;20.72;74.73;97802.76;225420;1275;24291;-75
2023/08/03 13:16:08;;;;;;;4.50;1.90;;;;;;;20.83;74.08;97808.73;225306;1256;22577;-75
2023/08/03 13:21:29;;;;;;;2.30;1.80;;;;;;;21.06;73.87;97806.67;225642;1256;25250;-76
2023/08/03 13:26:50;;;;;;;2.20;1.70;;;;;;;21.55;73.62;97817.06;225523;1262;22559;-77
2023/08/03 13:32:12;;;;;;;2.50;1.60;;;;;;;21.96;72.01;97824.73;225582;1262;23048;-76
2023/08/03 13:37:15;;;;;;;5.00;1.60;;;;;;;22.22;70.04;97826.02;225080;1262;22593;-76
2023/08/03 13:42:27;;;;;;;2.60;1.40;;;;;;;22.56;69.83;97839.20;224905;1265;22533;-76
2023/08/03 13:47:40;;;;;;;4.70;1.50;;;;;;;23.02;68.49;97846.42;224932;1264;22634;-76
2023/08/03 13:52:46;;;;;;;1.90;1.10;;;;;;;23.14;67.51;97859.34;225014;1260;22599;-77
2023/08/03 13:57:53;;;;;;;3.30;1.60;;;;;;;23.06;66.87;97857.16;224849;1269;22549;-76
2023/08/03 14:03:00;;;;;;;1.40;1.20;;;;;;;22.76;66.40;97863.36;224925;1275;24433;-77
2023/08/03 14:08:18;;;;;;;4.20;1.50;;;;;;;22.46;66.36;97855.80;225036;1273;22651;-76
2023/08/03 14:13:23;;;;;;;2.60;1.30;;;;;;;22.25;66.84;97862.45;225515;1278;22732;-76
2023/08/03 14:18:48;;;;;;;2.80;1.30;;;;;;;22.04;67.05;97859.21;225128;1278;24336;-75
2023/08/03 14:23:51;;;;;;;2.30;1.20;;;;;;;21.76;67.26;97855.05;225243;1273;22545;-75
2023/08/03 14:29:04;;;;;;;2.70;1.20;;;;;;;21.50;67.18;97859.35;225423;1278;23156;-75
2023/08/03 14:34:08;;;;;;;3.00;1.40;;;;;;;21.23;67.23;97866.15;225659;1272;22709;-75
2023/08/03 14:39:10;;;;;;;4.30;1.70;;;;;;;21.04;68.14;97870.66;226049;1278;22530;-75
2023/08/03 14:44:15;;;;;;;2.90;1.50;;;;;;;20.99;68.62;97857.74;226108;1278;22543;-75
2023/08/03 14:49:22;;;;;;;1.60;1.40;;;;;;;20.98;68.86;97862.31;225883;1279;22537;-75
2023/08/03 14:54:26;;;;;;;2.30;1.60;;;;;;;21.00;69.14;97868.54;225984;1278;22545;-76
2023/08/03 14:59:28;;;;;;;2.40;1.30;;;;;;;21.00;69.29;97870.15;225923;1278;22572;-75
2023/08/03 15:04:36;;;;;;;3.40;1.40;;;;;;;21.03;69.11;97883.57;226084;1278;22544;-76
2023/08/03 15:09:55;;;;;;;1.90;1.10;;;;;;;21.09;68.53;97895.34;225378;1284;22660;-75
2023/08/03 15:14:58;;;;;;;1.50;1.20;;;;;;;21.21;68.11;97895.73;225366;1283;23164;-75
2023/08/03 15:20:10;;;;;;;1.90;1.00;;;;;;;21.23;67.43;97892.22;225346;1281;22537;-75
2023/08/03 15:25:14;;;;;;;3.00;1.50;;;;;;;21.15;67.50;97895.30;225302;1281;22537;-75
2023/08/03 15:30:19;;;;;;;3.40;1.10;;;;;;;21.05;67.53;97910.19;225328;1284;22676;-74
2023/08/03 15:35:27;;;;;;;1.90;1.50;;;;;;;20.95;67.97;97903.80;226012;1280;22548;-75
2023/08/03 15:40:38;;;;;;;3.80;1.40;;;;;;;20.86;68.43;97903.30;226139;1275;22538;-75
2023/08/03 15:46:06;;;;;;;3.40;1.20;;;;;;;20.75;68.84;97902.12;225815;1280;22536;-75
2023/08/03 15:51:13;;;;;;;2.00;1.20;;;;;;;20.71;69.43;97904.17;225989;1279;22540;-75
2023/08/03 15:56:28;;;;;;;3.60;1.50;;;;;;;20.72;69.69;97907.89;225965;1279;22549;-74
2023/08/03 16:01:38;;;;;;;3.50;1.70;;;;;;;20.82;70.10;97919.23;226053;1277;22540;-74
2023/08/03 16:06:41;;;;;;;4.00;1.50;;;;;;;21.07;70.40;97917.17;225900;1278;22529;-75
2023/08/03 16:12:01;;;;;;;;;;;;;;;;;;;;;
2023/08/03 16:17:20;;;;;;;3.60;1.60;;;;;;;21.95;69.01;97906.58;226070;1278;22547;-74
2023/08/03 16:22:25;;;;;;;;;;;;;;;22.14;68.27;97894.85;226109;1277;24356;-76
2023/08/03 16:27:34;;;;;;;2.20;1.60;;;;;;;22.21;67.53;97894.30;226089;1280;25322;-75
2023/08/03 16:32:46;;;;;;;3.10;1.30;;;;;;;22.13;66.30;97898.41;226065;1277;24257;-75
2023/08/03 16:38:14;;;;;;;3.60;1.30;;;;;;;21.97;66.11;97907.05;225945;1280;24270;-75
2023/08/03 16:43:19;;;;;;;2.40;1.40;;;;;;;21.78;65.97;97915.70;226172;1279;24370;-74
2023/08/03 16:48:46;;;;;;;3.40;1.60;;;;;;;21.64;66.22;97919.15;226081;1280;22538;-75
2023/08/03 16:54:06;;;;;;;3.00;1.30;;;;;;;21.56;66.69;97915.81;226251;1278;22533;-75
2023/08/03 17:00:15;;;;;;;3.00;1.30;;;;;;;21.42;66.61;97923.44;226079;1279;25447;-75
2023/08/03 17:05:27;;;;;;;2.90;1.50;;;;;;;21.29;66.81;97919.01;226073;1280;22524;-75
2023/08/03 17:10:56;;;;;;;3.00;1.50;;;;;;;21.31;66.85;97908.89;226068;1280;22566;-75
2023/08/03 17:16:03;;;;;;;3.30;1.50;;;;;;;21.31;66.74;97920.88;226123;1273;22539;-75
2023/08/03 17:21:06;;;;;;;3.50;1.20;;;;;;;21.21;66.53;97935.33;226072;1280;22650;-75
2023/08/03 17:26:10;;;;;;;1.90;1.30;;;;;;;21.05;66.63;97942.43;225928;1278;22556;-75
2023/08/03 17:31:16;;;;;;;2.60;1.40;;;;;;;20.93;66.89;97938.14;226191;1279;22540;-75
2023/08/03 17:36:28;;;;;;;2.90;1.00;;;;;;;20.77;66.86;97934.77;225946;1279;22545;-75
2023/08/03 17:41:34;;;;;;;2.00;1.10;;;;;;;20.60;66.91;97940.98;226152;1276;22536;-75
2023/08/03 17:46:38;;;;;;;2.10;1.10;;;;;;;20.42;66.86;97943.13;226160;1275;22500;-75
2023/08/03 17:51:46;;;;;;;4.20;1.50;;;;;;;20.23;67.12;97955.54;226072;1279;22540;-74
2023/08/03 17:56:55;;;;;;;1.60;1.20;;;;;;;20.02;67.11;97952.02;226068;1278;22555;-76
2023/08/03 18:01:58;;;;;;;2.30;1.40;;;;;;;19.82;67.56;97959.78;226154;1272;22544;-74
2023/08/03 18:07:01;;;;;;;3.30;1.50;;;;;;;19.63;68.07;97951.95;225914;1279;22548;-74
2023/08/03 18:12:05;;;;;;;3.40;1.40;;;;;;;19.47;68.37;97950.20;225984;1279;23424;-75
2023/08/03 18:17:07;;;;;;;4.80;1.50;;;;;;;19.32;68.94;97952.29;226039;1278;23391;-74
2023/08/03 18:22:11;;;;;;;3.90;1.40;;;;;;;19.17;69.24;97959.80;226017;1279;22521;-75
2023/08/03 18:27:13;;;;;;;4.20;1.70;;;;;;;19.02;69.69;97961.95;226034;1273;22540;-75
2023/08/03 18:32:16;;;;;;;2.90;1.60;;;;;;;18.88;70.03;97971.53;226118;1280;22540;-74
2023/08/03 18:37:19;;;;;;;3.60;1.60;;;;;;;18.75;70.36;97975.64;226191;1270;22547;-74
2023/08/03 18:42:22;;;;;;;3.10;1.50;;;;;;;18.62;70.84;97994.56;226189;1280;24224;-74
2023/08/03 18:47:56;;;;;;;;;;;;;;;;;;;;;
2023/08/03 18:53:17;;;;;;;;;;;;;;;;;;;;;
2023/08/03 18:58:20;;;;;;;4.00;1.30;;;;;;;18.30;71.87;98021.08;226064;1278;23277;-75
2023/08/03 19:03:30;;;;;;;3.40;1.50;;;;;;;18.23;72.30;98033.45;226076;1279;22537;-75
2023/08/03 19:08:34;;;;;;;2.90;1.40;;;;;;;18.16;72.43;98038.56;226069;1277;22529;-76
2023/08/03 19:13:43;;;;;;;4.60;1.50;;;;;;;18.09;72.76;98043.16;226144;1280;22567;-74
2023/08/03 19:18:49;;;;;;;2.90;1.50;;;;;;;18.00;72.89;98054.84;225979;1278;22550;-74
2023/08/03 19:23:51;;;;;;;3.60;1.40;;;;;;;17.90;73.16;98068.92;226079;1277;23048;-74
2023/08/03 19:28:54;;;;;;;5.10;1.80;;;;;;;17.81;73.48;98082.45;226043;1279;22540;-74
2023/08/03 19:33:56;;;;;;;4.10;1.80;;;;;;;17.74;73.76;98088.99;226043;1279;22523;-74
2023/08/03 19:39:00;;;;;;;3.40;1.60;;;;;;;17.66;73.99;98092.80;225912;1279;22683;-74
2023/08/03 19:44:23;;;;;;;2.90;1.80;;;;;;;17.59;74.20;98091.74;226050;1280;22584;-75
2023/08/03 19:49:29;;;;;;;4.20;1.60;;;;;;;17.53;74.38;98087.02;226164;1258;22556;-75
2023/08/03 19:54:37;;;;;;;4.60;1.30;;;;;;;17.47;74.58;98092.52;226067;1278;25350;-74
2023/08/03 19:59:45;;;;;;;5.10;2.30;;;;;;;17.38;74.64;98099.24;225911;1279;22546;-75
2023/08/03 20:05:17;;;;;;;4.10;1.50;;;;;;;17.30;74.89;98098.55;226074;1279;22532;-75
2023/08/03 20:10:24;;;;;;;3.20;1.40;;;;;;;17.22;75.01;98101.06;225950;1271;22552;-74
2023/08/03 20:15:27;;;;;;;2.40;1.50;;;;;;;17.16;75.15;98099.39;226224;1272;22513;-74
2023/08/03 20:20:49;;;;;;;3.10;1.60;;;;;;;17.10;75.10;98109.65;226129;1280;22568;-75
2023/08/03 20:26:11;;;;;;;2.70;1.50;;;;;;;17.05;75.33;98108.63;225528;1283;22555;-74
2023/08/03 20:31:20;;;;;;;4.90;1.70;;;;;;;16.99;75.65;98117.23;225455;1283;23179;-75
2023/08/03 20:36:33;;;;;;;3.90;1.70;;;;;;;16.91;75.69;98108.33;225519;1279;22630;-75
2023/08/03 20:41:36;;;;;;;3.20;1.90;;;;;;;16.83;75.72;98099.04;225512;1279;22554;-75
2023/08/03 20:46:41;;;;;;;3.00;1.70;;;;;;;16.77;76.04;98095.05;225512;1281;22531;-75
2023/08/03 20:51:47;;;;;;;5.20;2.10;;;;;;;16.75;76.19;98104.52;225416;1282;22582;-76
2023/08/03 20:56:52;;;;;;;4.50;2.10;;;;;;;16.75;76.32;98106.13;225811;1279;22661;-75
2023/08/03 21:01:55;;;;;;;4.50;2.00;;;;;;;16.73;76.51;98117.25;226203;1276;22538;-75
2023/08/03 21:07:01;;;;;;;4.40;1.60;;;;;;;16.73;76.61;98115.16;226164;1279;22550;-74
2023/08/03 21:12:20;;;;;;;3.60;2.10;;;;;;;16.75;76.78;98131.90;226098;1280;22533;-74
2023/08/03 21:17:24;;;;;;;2.60;1.50;;;;;;;16.79;77.02;98134.19;226196;1274;22563;-74
2023/08/03 21:22:27;;;;;;;3.80;1.50;;;;;;;16.88;77.12;98132.09;226167;1276;22536;-75
2023/08/03 21:27:39;;;;;;;5.80;1.80;;;;;;;16.97;76.73;98141.34;226034;1279;24225;-74
2023/08/03 21:32:48;;;;;;;1.90;1.50;;;;;;;17.03;76.95;98144.16;226164;1279;22570;-75
2023/08/03 21:38:12;;;;;;;5.00;1.40;;;;;;;17.05;76.48;98132.45;226113;1279;22527;-74
2023/08/03 21:43:33;;;;;;;;;;;;;;;;;;;;;
2023/08/03 21:48:39;;;;;;;2.60;1.50;;;;;;;17.04;76.57;98130.45;226160;1280;22538;-75
2023/08/03 21:53:41;;;;;;;5.40;1.60;;;;;;;17.03;76.60;98136.90;226194;1279;24217;-75
2023/08/03 21:58:44;;;;;;;2.60;1.70;;;;;;;17.00;76.42;98131.95;225891;1257;22595;-74
2023/08/03 22:03:47;;;;;;;3.80;1.80;;;;;;;16.97;76.62;98131.58;226127;1279;22618;-74
2023/08/03 22:09:02;;;;;;;2.40;1.40;;;;;;;16.93;76.61;98127.88;225973;1279;22544;-74
2023/08/03 22:14:28;;;;;;;2.20;1.50;;;;;;;16.89;76.63;98134.57;225775;1264;24773;-75
2023/08/03 22:19:37;;;;;;;2.20;1.30;;;;;;;16.86;76.73;98140.48;225669;1280;24241;-75
2023/08/03 22:24:42;;;;;;;3.50;1.30;;;;;;;16.82;76.91;98149.11;225810;1261;22540;-74
2023/08/03 22:30:00;;;;;;;3.20;1.70;;;;;;;16.78;77.01;98153.33;225682;1281;24219;-73
2023/08/03 22:35:16;;;;;;;4.10;1.70;;;;;;;16.74;77.00;98152.52;225669;1281;22558;-75
2023/08/03 22:40:21;;;;;;;3.10;1.30;;;;;;;16.67;77.17;98151.60;225582;1276;22544;-75
2023/08/03 22:45:24;;;;;;;3.10;1.30;;;;;;;16.60;77.34;98146.83;226062;1279;22526;-75
2023/08/03 22:50:42;;;;;;;4.30;1.40;;;;;;;16.52;77.48;98152.67;225225;1279;909955;-74
2023/08/03 22:56:03;;;;;;;4.00;1.40;;;;;;;16.49;77.49;98157.55;225943;1279;22551;-74
2023/08/03 23:01:20;;;;;;;3.80;1.80;;;;;;;16.44;77.63;98161.13;225870;1279;22553;-75
2023/08/03 23:07:11;;;;;;;2.30;1.30;;;;;;;16.41;77.94;98147.69;226059;1279;22533;-74
2023/08/03 23:12:15;;;;;;;5.30;1.50;;;;;;;16.41;77.87;98136.05;226115;1280;22535;-75
2023/08/03 23:17:45;;;;;;;;;;;;;;;;;;;;;
2023/08/03 23:22:55;;;;;;;3.40;1.50;;;;;;;16.45;78.01;98141.14;226161;1277;22559;-75
2023/08/03 23:28:12;;;;;;;3.30;1.40;;;;;;;16.48;78.14;98138.71;225882;1279;22559;-75
2023/08/03 23:34:47;;;;;;;4.90;1.50;;;;;;;16.49;78.22;98138.15;225324;1283;22554;-75
2023/08/03 23:40:44;;;;;;;2.00;1.20;;;;;;;16.50;78.28;98151.94;225316;1283;23393;-75
2023/08/03 23:47:05;;;;;;;6.00;3.20;;;;;;;16.52;78.37;98154.44;225284;1283;22598;-74
2023/08/03 23:53:19;;;;;;;6.80;4.10;;;;;;;16.57;78.05;98160.77;225196;1283;22609;-74
2023/08/03 23:58:30;;;;;;;4.90;2.90;;;;;;;16.61;78.22;98161.30;225926;1279;22560;-74
